Terminal Aerodrome Forecast
Issued by NWS Greer, SC

Home | Current Version | Previous Version | Text Only | Print | Product List | Glossary On
Versions: 1 2 3 4 5 6 7 8 9 10 11 12 13 14
000
FTUS42 KGSP 302335
TAFAVL
TAF
KAVL 302335Z 3100/3124 34005KT P6SM SCT250
     FM311200 34005KT P6SM SCT045 BKN250
     FM311800 34007KT P6SM BKN045=

USA.gov is the U.S. government's official web portal to all federal, state and local government web resources and services.